ROMMA est une association bénévole à but non lucratif. Votre soutien est indispensable : ADHERER à ROMMA ou FAIRE un DON

Miribel-les-Echelles - (38, Isère)

Massif de la Chartreuse (760 m)   Longitude: 05° 41' 54'' E   Latitude: 45° 26' 40'' N Station romma n°22
 

Détail journalier du     <<     >>

Température Precipitation Humidité Pression Vent Dir Rafale Dir. rafale Ensol.
Heure (°C) (mm) (%) (hPa) (km/h) (km/h) (min)
01:00 11.209310161NE11SE0
02:00 12.008710164S15S0
03:00 12.408210156SO18OSO0
04:00 12.807910156SSO18SSO0
05:00 13.507710146SO18OSO0
06:00 13.307710143S15SSE0
07:00 13.0078101411SO21SO0
08:00 12.008410142ESE16SO0
09:00 11.509110152NO11ONO0
10:00 11.7091101508SE0
11:00 13.808010155SSE23S0
12:00 14.507510159S26S0
13:00 14.5077101512SO24SO0
14:00 16.707510145SE19ESE60
15:00 15.907610144SSE16SO0
16:00 15.207710142SSO8SSE0
17:00 14.008910145SO18OSO0
18:00 13.409210132E11S0
19:00 12.609310133S13S0
20:00 13.208710133SO23OSO0
21:00 13.308710137SO23SO0
22:00 12.609310137ENE26OSO0
23:00 12.2095101208SSO0
minuit 13.4084101210SO21OSO0

Graphique du 18-10-2019

 

Serveur OMMA